Skagway, AK

9:55 PM AKST on February 12, 2016 (GMT -0900)
Skagway | | Change Station
CLOSE
Current Station
Airport
Location: Skagway,
Elevation: 16 ft
Nearby Weather Stations

Elev 16 ft 59.46 °N, 135.32 °W | Updated 1 hour ago

Overcast
Overcast
45 °F
Feels Like 38 °F
N
15
Wind Variable Wind from SSW
Gusts 23 mph

Today
High -- | Low -- °F
--% Chance of Precip.
Yesterday
High -- | Low -- °F
Precip. -- in
Pressure 29.71 in
Visibility 10.0 miles
Clouds Mostly Cloudy 5500 ft
Mostly Cloudy 6500 ft
Overcast 8000 ft
Windchill 38 °F
Dew Point 37 °F
Humidity 74%
Rainfall 0.09 in
Snow Depth Not available.
7:45 AM 4:46 PM
Waxing Crescent, 28% visible
METAR PAGY 130553Z AUTO 20013G20KT 10SM BKN055 BKN065 OVC080 07/03 A2971 RMK AO2 PK WND 20028/0524 SLP059 60001 T00720028 10078 20067 50004 TSNO
Pressure 29.71 in
Visibility 10.0 miles
Clouds Mostly Cloudy 5500 ft
Mostly Cloudy 6500 ft
Overcast 8000 ft
Windchill 38 °F
Dew Point 37 °F
Humidity 74%
Rainfall 0.09 in
Snow Depth Not available.
7:45 AM 4:46 PM
Waxing Crescent, 28% visible
METAR PAGY 130553Z AUTO 20013G20KT 10SM BKN055 BKN065 OVC080 07/03 A2971 RMK AO2 PK WND 20028/0524 SLP059 60001 T00720028 10078 20067 50004 TSNO

10-Day Weather Forecast

Almanac

Astronomy

Feb. 12, 2016 Rise Set
Actual Time
Civil Twilight
Nautical Twilight
Astronomical Twilight
Moon
Length of Visible Light
Length of Day
Tomorrow will be .
, % of the Moon is Illuminated

Today's Extremes

State Highs State Lows

Community

WunderPhotos

Upload Photos

1,892,519 photos uploaded!

WunderBlog® & News

Nearby

Air Quality

  Air Quality AQ Index Pollutant
Not available.

Snow Depth

Station Depth Elevation

Earthquake Activity

City Distance Mag. Time & Date
Minimum magnitude displayed is 2.5.

Coastal Water Temperatures

Place Temperature

Stations

Nearby Weather Stations

Station Location Temp. Windchill Dew Point Humidity Wind Precip. Elev Updated Type
                   

Watches & Warnings

There are currently no watches in effect.